sensor_id;sensor_type;location;lat;lon;timestamp;pressure;altitude;pressure_sealevel;temperature;humidity
43281;BME280;62175;49.416;8.690;2023-04-20T00:01:04;100604.32;;;12.79;37.24
43281;BME280;62175;49.416;8.690;2023-04-20T00:03:32;100598.63;;;12.54;37.59
43281;BME280;62175;49.416;8.690;2023-04-20T00:05:59;100598.32;;;12.76;37.03
43281;BME280;62175;49.416;8.690;2023-04-20T00:08:26;100593.07;;;12.51;37.96
43281;BME280;62175;49.416;8.690;2023-04-20T00:10:53;100590.50;;;12.57;37.86
43281;BME280;62175;49.416;8.690;2023-04-20T00:13:21;100586.11;;;12.35;37.09
43281;BME280;62175;49.416;8.690;2023-04-20T00:15:49;100584.11;;;12.35;37.00
43281;BME280;62175;49.416;8.690;2023-04-20T00:18:16;100580.36;;;12.92;37.19
43281;BME280;62175;49.416;8.690;2023-04-20T00:20:43;100574.62;;;12.44;37.40
43281;BME280;62175;49.416;8.690;2023-04-20T00:23:10;100574.54;;;12.43;37.28
43281;BME280;62175;49.416;8.690;2023-04-20T00:25:37;100575.16;;;12.39;38.02
43281;BME280;62175;49.416;8.690;2023-04-20T00:28:05;100573.82;;;12.18;38.03
43281;BME280;62175;49.416;8.690;2023-04-20T00:30:32;100569.31;;;12.34;38.53
43281;BME280;62175;49.416;8.690;2023-04-20T00:32:59;100566.04;;;12.27;38.88
43281;BME280;62175;49.416;8.690;2023-04-20T00:35:27;100559.83;;;12.04;39.30
43281;BME280;62175;49.416;8.690;2023-04-20T00:37:54;100558.42;;;12.16;38.67
43281;BME280;62175;49.416;8.690;2023-04-20T00:40:22;100557.35;;;12.00;38.79
43281;BME280;62175;49.416;8.690;2023-04-20T00:42:50;100555.69;;;12.24;39.16
43281;BME280;62175;49.416;8.690;2023-04-20T00:45:17;100554.07;;;12.12;40.22
43281;BME280;62175;49.416;8.690;2023-04-20T00:47:44;100556.41;;;11.91;40.14
43281;BME280;62175;49.416;8.690;2023-04-20T00:50:11;100554.52;;;12.16;40.85
43281;BME280;62175;49.416;8.690;2023-04-20T00:52:39;100549.87;;;11.93;41.03
43281;BME280;62175;49.416;8.690;2023-04-20T00:55:07;100543.90;;;12.33;40.75
43281;BME280;62175;49.416;8.690;2023-04-20T00:57:36;100540.83;;;12.44;41.24
43281;BME280;62175;49.416;8.690;2023-04-20T01:00:05;100539.49;;;11.74;41.35
43281;BME280;62175;49.416;8.690;2023-04-20T01:02:33;100536.51;;;11.65;41.10
43281;BME280;62175;49.416;8.690;2023-04-20T01:05:00;100533.26;;;11.66;41.04
43281;BME280;62175;49.416;8.690;2023-04-20T01:07:27;100531.60;;;11.85;40.66
43281;BME280;62175;49.416;8.690;2023-04-20T01:09:54;100528.70;;;11.74;41.40
43281;BME280;62175;49.416;8.690;2023-04-20T01:12:21;100526.84;;;11.66;41.45
43281;BME280;62175;49.416;8.690;2023-04-20T01:14:48;100520.19;;;11.64;41.28
43281;BME280;62175;49.416;8.690;2023-04-20T01:17:16;100522.12;;;11.50;41.38
43281;BME280;62175;49.416;8.690;2023-04-20T01:19:43;100519.63;;;11.80;41.15
43281;BME280;62175;49.416;8.690;2023-04-20T01:22:15;100513.38;;;11.59;41.16
43281;BME280;62175;49.416;8.690;2023-04-20T01:24:43;100511.72;;;11.57;41.19
43281;BME280;62175;49.416;8.690;2023-04-20T01:27:10;100509.59;;;11.75;41.24
43281;BME280;62175;49.416;8.690;2023-04-20T01:29:37;100507.69;;;11.68;41.34
43281;BME280;62175;49.416;8.690;2023-04-20T01:32:05;100504.31;;;11.72;41.45
43281;BME280;62175;49.416;8.690;2023-04-20T01:34:33;100503.09;;;11.40;41.61
43281;BME280;62175;49.416;8.690;2023-04-20T01:37:00;100493.39;;;11.59;41.31
43281;BME280;62175;49.416;8.690;2023-04-20T01:39:27;100494.83;;;11.42;41.45
43281;BME280;62175;49.416;8.690;2023-04-20T01:41:54;100491.04;;;11.49;41.10
43281;BME280;62175;49.416;8.690;2023-04-20T01:44:22;100483.79;;;11.63;42.03
43281;BME280;62175;49.416;8.690;2023-04-20T01:46:49;100480.58;;;11.67;41.23
43281;BME280;62175;49.416;8.690;2023-04-20T01:49:16;100474.47;;;11.28;41.30
43281;BME280;62175;49.416;8.690;2023-04-20T01:51:43;100472.88;;;11.24;41.03
43281;BME280;62175;49.416;8.690;2023-04-20T01:54:10;100469.68;;;11.36;41.50
43281;BME280;62175;49.416;8.690;2023-04-20T01:56:39;100464.26;;;11.47;41.66
43281;BME280;62175;49.416;8.690;2023-04-20T01:59:07;100465.17;;;11.67;41.86
43281;BME280;62175;49.416;8.690;2023-04-20T02:01:34;100461.90;;;11.06;41.82
43281;BME280;62175;49.416;8.690;2023-04-20T02:04:03;100460.90;;;11.45;41.76
43281;BME280;62175;49.416;8.690;2023-04-20T02:06:31;100464.32;;;11.54;41.71
43281;BME280;62175;49.416;8.690;2023-04-20T02:08:58;100466.95;;;11.38;41.38
43281;BME280;62175;49.416;8.690;2023-04-20T02:11:25;100468.58;;;11.27;41.39
43281;BME280;62175;49.416;8.690;2023-04-20T02:13:53;100461.49;;;11.53;41.14
43281;BME280;62175;49.416;8.690;2023-04-20T02:16:22;100460.31;;;11.49;41.78
43281;BME280;62175;49.416;8.690;2023-04-20T02:18:50;100456.28;;;11.49;41.58
43281;BME280;62175;49.416;8.690;2023-04-20T02:21:18;100454.56;;;11.20;41.50
43281;BME280;62175;49.416;8.690;2023-04-20T02:23:48;100451.29;;;11.55;41.30
43281;BME280;62175;49.416;8.690;2023-04-20T02:26:16;100453.69;;;11.30;42.04
43281;BME280;62175;49.416;8.690;2023-04-20T02:28:44;100455.00;;;11.64;41.55
43281;BME280;62175;49.416;8.690;2023-04-20T02:31:12;100451.50;;;11.57;41.56
43281;BME280;62175;49.416;8.690;2023-04-20T02:33:39;100451.15;;;11.60;41.97
43281;BME280;62175;49.416;8.690;2023-04-20T02:36:08;100451.81;;;11.51;41.81
43281;BME280;62175;49.416;8.690;2023-04-20T02:38:36;100448.13;;;11.49;42.09
43281;BME280;62175;49.416;8.690;2023-04-20T02:41:04;100449.01;;;11.72;42.40
43281;BME280;62175;49.416;8.690;2023-04-20T02:43:31;100443.85;;;11.35;41.76
43281;BME280;62175;49.416;8.690;2023-04-20T02:45:58;100442.10;;;11.27;41.82
43281;BME280;62175;49.416;8.690;2023-04-20T02:48:26;100440.15;;;11.62;42.29
43281;BME280;62175;49.416;8.690;2023-04-20T02:50:56;100438.93;;;11.48;42.05
43281;BME280;62175;49.416;8.690;2023-04-20T02:53:24;100433.95;;;11.11;40.81
43281;BME280;62175;49.416;8.690;2023-04-20T02:55:52;100428.65;;;11.68;40.48
43281;BME280;62175;49.416;8.690;2023-04-20T02:58:19;100427.32;;;11.65;40.11
43281;BME280;62175;49.416;8.690;2023-04-20T03:00:46;100419.86;;;11.71;39.97
43281;BME280;62175;49.416;8.690;2023-04-20T03:03:14;100422.00;;;11.78;40.08
43281;BME280;62175;49.416;8.690;2023-04-20T03:05:41;100418.59;;;11.87;39.25
43281;BME280;62175;49.416;8.690;2023-04-20T03:08:08;100417.51;;;12.02;39.40
43281;BME280;62175;49.416;8.690;2023-04-20T03:10:35;100411.82;;;11.91;39.42
43281;BME280;62175;49.416;8.690;2023-04-20T03:13:03;100412.64;;;11.53;39.43
43281;BME280;62175;49.416;8.690;2023-04-20T03:15:31;100408.27;;;11.72;39.21
43281;BME280;62175;49.416;8.690;2023-04-20T03:18:01;100407.81;;;11.74;38.69
43281;BME280;62175;49.416;8.690;2023-04-20T03:20:30;100403.59;;;11.75;39.44
43281;BME280;62175;49.416;8.690;2023-04-20T03:23:02;100401.27;;;11.54;38.95
43281;BME280;62175;49.416;8.690;2023-04-20T03:25:29;100402.96;;;12.03;40.00
43281;BME280;62175;49.416;8.690;2023-04-20T03:27:56;100402.35;;;11.67;38.44
43281;BME280;62175;49.416;8.690;2023-04-20T03:30:25;100397.90;;;12.12;39.27
43281;BME280;62175;49.416;8.690;2023-04-20T03:32:52;100392.41;;;11.79;39.02
43281;BME280;62175;49.416;8.690;2023-04-20T03:35:22;100388.78;;;11.57;39.54
43281;BME280;62175;49.416;8.690;2023-04-20T03:37:49;100388.64;;;11.76;39.50
43281;BME280;62175;49.416;8.690;2023-04-20T03:40:16;100387.43;;;11.72;40.16
43281;BME280;62175;49.416;8.690;2023-04-20T03:42:43;100384.58;;;11.76;40.28
43281;BME280;62175;49.416;8.690;2023-04-20T03:45:12;100378.26;;;11.82;39.60
43281;BME280;62175;49.416;8.690;2023-04-20T03:47:39;100376.44;;;11.77;40.38
43281;BME280;62175;49.416;8.690;2023-04-20T03:50:08;100373.73;;;11.78;40.82
43281;BME280;62175;49.416;8.690;2023-04-20T03:52:35;100368.13;;;12.15;40.61
43281;BME280;62175;49.416;8.690;2023-04-20T03:55:06;100367.65;;;12.06;39.59
43281;BME280;62175;49.416;8.690;2023-04-20T03:57:33;100364.99;;;11.96;39.33
43281;BME280;62175;49.416;8.690;2023-04-20T04:00:01;100361.93;;;11.78;39.98
43281;BME280;62175;49.416;8.690;2023-04-20T04:02:29;100361.87;;;11.60;39.90
43281;BME280;62175;49.416;8.690;2023-04-20T04:04:57;100361.15;;;12.05;39.30
43281;BME280;62175;49.416;8.690;2023-04-20T04:07:25;100357.46;;;11.74;39.99
43281;BME280;62175;49.416;8.690;2023-04-20T04:09:52;100357.15;;;12.08;39.14
43281;BME280;62175;49.416;8.690;2023-04-20T04:12:20;100354.63;;;12.08;39.94
43281;BME280;62175;49.416;8.690;2023-04-20T04:14:48;100356.91;;;11.76;39.83
43281;BME280;62175;49.416;8.690;2023-04-20T04:17:16;100355.68;;;11.70;39.76
43281;BME280;62175;49.416;8.690;2023-04-20T04:19:44;100357.79;;;11.54;39.48
43281;BME280;62175;49.416;8.690;2023-04-20T04:22:11;100354.44;;;11.58;39.91
43281;BME280;62175;49.416;8.690;2023-04-20T04:24:38;100356.99;;;12.10;39.11
43281;BME280;62175;49.416;8.690;2023-04-20T04:27:05;100360.59;;;11.82;39.32
43281;BME280;62175;49.416;8.690;2023-04-20T04:29:34;100358.64;;;12.03;39.32
43281;BME280;62175;49.416;8.690;2023-04-20T04:32:01;100357.55;;;11.79;39.18
43281;BME280;62175;49.416;8.690;2023-04-20T04:34:28;100360.51;;;11.89;39.53
43281;BME280;62175;49.416;8.690;2023-04-20T04:36:55;100358.97;;;12.03;39.76
43281;BME280;62175;49.416;8.690;2023-04-20T04:39:23;100358.81;;;11.90;39.50
43281;BME280;62175;49.416;8.690;2023-04-20T04:41:50;100361.46;;;11.59;40.10
43281;BME280;62175;49.416;8.690;2023-04-20T04:44:17;100362.20;;;11.44;39.94
43281;BME280;62175;49.416;8.690;2023-04-20T04:46:44;100358.09;;;11.84;39.15
43281;BME280;62175;49.416;8.690;2023-04-20T04:49:12;100357.25;;;11.51;39.78
43281;BME280;62175;49.416;8.690;2023-04-20T04:51:40;100358.87;;;11.64;39.47
43281;BME280;62175;49.416;8.690;2023-04-20T04:54:07;100355.25;;;11.84;39.55
43281;BME280;62175;49.416;8.690;2023-04-20T04:56:35;100353.26;;;11.89;39.80
43281;BME280;62175;49.416;8.690;2023-04-20T04:59:02;100347.92;;;11.82;39.84
43281;BME280;62175;49.416;8.690;2023-04-20T05:01:30;100350.82;;;11.76;40.19
43281;BME280;62175;49.416;8.690;2023-04-20T05:03:57;100354.27;;;11.68;40.05
43281;BME280;62175;49.416;8.690;2023-04-20T05:06:24;100355.39;;;12.21;40.01
43281;BME280;62175;49.416;8.690;2023-04-20T05:08:51;100361.46;;;11.91;40.31
43281;BME280;62175;49.416;8.690;2023-04-20T05:11:19;100361.10;;;11.86;40.32
43281;BME280;62175;49.416;8.690;2023-04-20T05:13:47;100362.99;;;12.37;39.55
43281;BME280;62175;49.416;8.690;2023-04-20T05:16:14;100364.72;;;11.62;39.99
43281;BME280;62175;49.416;8.690;2023-04-20T05:18:42;100368.15;;;12.26;40.66
43281;BME280;62175;49.416;8.690;2023-04-20T05:21:09;100365.30;;;11.90;40.29
43281;BME280;62175;49.416;8.690;2023-04-20T05:23:37;100361.46;;;12.10;41.40
43281;BME280;62175;49.416;8.690;2023-04-20T05:26:04;100360.81;;;11.80;40.75
43281;BME280;62175;49.416;8.690;2023-04-20T05:28:32;100364.79;;;12.17;40.67
43281;BME280;62175;49.416;8.690;2023-04-20T05:31:00;100369.16;;;12.02;40.98
43281;BME280;62175;49.416;8.690;2023-04-20T05:33:27;100368.99;;;12.06;40.96
43281;BME280;62175;49.416;8.690;2023-04-20T05:35:55;100371.76;;;12.21;41.12
43281;BME280;62175;49.416;8.690;2023-04-20T05:38:22;100379.01;;;12.28;41.38
43281;BME280;62175;49.416;8.690;2023-04-20T05:40:50;100382.04;;;12.15;40.77
43281;BME280;62175;49.416;8.690;2023-04-20T05:43:17;100382.59;;;11.65;41.26
43281;BME280;62175;49.416;8.690;2023-04-20T05:45:44;100380.14;;;12.07;41.08
43281;BME280;62175;49.416;8.690;2023-04-20T05:48:11;100383.92;;;11.83;40.98
43281;BME280;62175;49.416;8.690;2023-04-20T05:50:38;100384.61;;;11.81;40.67
43281;BME280;62175;49.416;8.690;2023-04-20T05:53:05;100384.72;;;12.03;41.32
43281;BME280;62175;49.416;8.690;2023-04-20T05:55:33;100385.50;;;11.99;41.53
43281;BME280;62175;49.416;8.690;2023-04-20T05:58:00;100381.44;;;11.58;40.88
43281;BME280;62175;49.416;8.690;2023-04-20T06:00:27;100380.66;;;11.91;40.79
43281;BME280;62175;49.416;8.690;2023-04-20T06:02:54;100379.63;;;11.77;41.54
43281;BME280;62175;49.416;8.690;2023-04-20T06:05:21;100375.51;;;11.92;40.51
43281;BME280;62175;49.416;8.690;2023-04-20T06:07:49;100379.12;;;12.24;40.86
43281;BME280;62175;49.416;8.690;2023-04-20T06:10:16;100375.58;;;11.88;40.86
43281;BME280;62175;49.416;8.690;2023-04-20T06:12:43;100374.32;;;11.87;40.95
43281;BME280;62175;49.416;8.690;2023-04-20T06:15:10;100373.14;;;11.99;40.83
43281;BME280;62175;49.416;8.690;2023-04-20T06:17:38;100370.29;;;12.34;40.58
43281;BME280;62175;49.416;8.690;2023-04-20T06:20:07;100368.92;;;12.41;40.50
43281;BME280;62175;49.416;8.690;2023-04-20T06:22:35;100364.66;;;11.88;40.43
43281;BME280;62175;49.416;8.690;2023-04-20T06:25:03;100364.17;;;12.37;40.56
43281;BME280;62175;49.416;8.690;2023-04-20T06:27:30;100355.60;;;12.51;40.06
43281;BME280;62175;49.416;8.690;2023-04-20T06:29:58;100362.85;;;12.25;40.46
43281;BME280;62175;49.416;8.690;2023-04-20T06:32:25;100361.13;;;12.22;40.94
43281;BME280;62175;49.416;8.690;2023-04-20T06:34:53;100371.93;;;12.17;40.72
43281;BME280;62175;49.416;8.690;2023-04-20T06:37:20;100373.62;;;12.44;41.52
43281;BME280;62175;49.416;8.690;2023-04-20T06:39:47;100380.62;;;12.30;41.30
43281;BME280;62175;49.416;8.690;2023-04-20T06:42:19;100377.70;;;12.79;41.26
43281;BME280;62175;49.416;8.690;2023-04-20T06:44:47;100377.91;;;12.56;41.17
43281;BME280;62175;49.416;8.690;2023-04-20T06:47:14;100375.85;;;12.50;40.45
43281;BME280;62175;49.416;8.690;2023-04-20T06:49:42;100375.45;;;12.62;40.75
43281;BME280;62175;49.416;8.690;2023-04-20T06:52:09;100374.23;;;12.63;40.67
43281;BME280;62175;49.416;8.690;2023-04-20T06:54:37;100375.41;;;12.83;40.66
43281;BME280;62175;49.416;8.690;2023-04-20T06:57:04;100373.53;;;12.62;40.95
43281;BME280;62175;49.416;8.690;2023-04-20T06:59:31;100368.48;;;12.55;40.68
43281;BME280;62175;49.416;8.690;2023-04-20T07:01:59;100370.98;;;12.52;40.79
43281;BME280;62175;49.416;8.690;2023-04-20T07:04:26;100362.59;;;12.50;40.63
43281;BME280;62175;49.416;8.690;2023-04-20T07:06:54;100362.54;;;12.32;41.46
43281;BME280;62175;49.416;8.690;2023-04-20T07:09:21;100358.72;;;12.44;40.80
43281;BME280;62175;49.416;8.690;2023-04-20T07:11:48;100351.93;;;12.54;41.44
43281;BME280;62175;49.416;8.690;2023-04-20T07:14:15;100349.98;;;12.63;41.33
43281;BME280;62175;49.416;8.690;2023-04-20T07:16:43;100347.82;;;12.48;40.83
43281;BME280;62175;49.416;8.690;2023-04-20T07:19:11;100342.38;;;12.97;41.48
43281;BME280;62175;49.416;8.690;2023-04-20T07:21:38;100336.68;;;12.50;40.89
43281;BME280;62175;49.416;8.690;2023-04-20T07:24:06;100344.30;;;12.63;41.75
43281;BME280;62175;49.416;8.690;2023-04-20T07:26:33;100341.92;;;12.62;41.34
43281;BME280;62175;49.416;8.690;2023-04-20T07:29:00;100342.10;;;12.69;40.68
43281;BME280;62175;49.416;8.690;2023-04-20T07:31:29;100338.23;;;12.55;41.51
43281;BME280;62175;49.416;8.690;2023-04-20T07:33:56;100337.46;;;12.72;40.71
43281;BME280;62175;49.416;8.690;2023-04-20T07:36:24;100343.26;;;12.41;41.04
43281;BME280;62175;49.416;8.690;2023-04-20T07:38:51;100336.21;;;12.93;42.10
43281;BME280;62175;49.416;8.690;2023-04-20T07:41:18;100340.85;;;12.92;41.41
43281;BME280;62175;49.416;8.690;2023-04-20T07:43:46;100342.98;;;12.82;41.02
43281;BME280;62175;49.416;8.690;2023-04-20T07:46:21;100337.04;;;12.91;40.72
43281;BME280;62175;49.416;8.690;2023-04-20T07:48:48;100334.82;;;12.93;41.02
43281;BME280;62175;49.416;8.690;2023-04-20T07:51:16;100331.33;;;12.41;40.90
43281;BME280;62175;49.416;8.690;2023-04-20T07:53:44;100334.17;;;13.28;41.36
43281;BME280;62175;49.416;8.690;2023-04-20T07:56:11;100334.38;;;13.34;40.76
43281;BME280;62175;49.416;8.690;2023-04-20T07:58:38;100331.74;;;13.52;40.68
43281;BME280;62175;49.416;8.690;2023-04-20T08:01:06;100332.29;;;13.22;41.61
43281;BME280;62175;49.416;8.690;2023-04-20T08:03:33;100328.69;;;13.31;41.54
43281;BME280;62175;49.416;8.690;2023-04-20T08:06:00;100329.05;;;13.09;41.09
43281;BME280;62175;49.416;8.690;2023-04-20T08:08:27;100327.96;;;13.05;39.74
43281;BME280;62175;49.416;8.690;2023-04-20T08:10:56;100322.44;;;13.36;40.19
43281;BME280;62175;49.416;8.690;2023-04-20T08:13:28;100318.27;;;13.58;40.63
43281;BME280;62175;49.416;8.690;2023-04-20T08:16:12;100315.54;;;13.05;40.65
43281;BME280;62175;49.416;8.690;2023-04-20T08:20:41;100312.28;;;13.52;41.19
43281;BME280;62175;49.416;8.690;2023-04-20T08:23:12;100313.34;;;13.31;39.92
43281;BME280;62175;49.416;8.690;2023-04-20T08:25:40;100314.93;;;13.70;40.57
43281;BME280;62175;49.416;8.690;2023-04-20T08:28:16;100315.77;;;13.51;41.16
43281;BME280;62175;49.416;8.690;2023-04-20T08:31:12;100311.20;;;13.60;40.61
43281;BME280;62175;49.416;8.690;2023-04-20T08:33:42;100308.70;;;13.63;40.01
43281;BME280;62175;49.416;8.690;2023-04-20T08:36:10;100298.52;;;13.80;39.80
43281;BME280;62175;49.416;8.690;2023-04-20T08:38:53;100302.66;;;13.83;40.47
43281;BME280;62175;49.416;8.690;2023-04-20T08:41:21;100299.62;;;13.60;41.39
43281;BME280;62175;49.416;8.690;2023-04-20T08:43:50;100294.65;;;13.66;40.53
43281;BME280;62175;49.416;8.690;2023-04-20T08:46:18;100298.51;;;13.31;39.76
43281;BME280;62175;49.416;8.690;2023-04-20T08:48:46;100302.19;;;13.80;40.39
43281;BME280;62175;49.416;8.690;2023-04-20T08:51:14;100306.61;;;13.40;40.06
43281;BME280;62175;49.416;8.690;2023-04-20T08:53:42;100299.90;;;13.67;40.85
43281;BME280;62175;49.416;8.690;2023-04-20T08:56:10;100301.83;;;13.47;41.81
43281;BME280;62175;49.416;8.690;2023-04-20T08:58:37;100303.55;;;13.48;40.55
43281;BME280;62175;49.416;8.690;2023-04-20T09:01:05;100299.53;;;13.18;40.50
43281;BME280;62175;49.416;8.690;2023-04-20T09:03:33;100295.89;;;13.25;40.46
43281;BME280;62175;49.416;8.690;2023-04-20T09:06:01;100299.88;;;13.58;42.00
43281;BME280;62175;49.416;8.690;2023-04-20T09:08:34;100291.47;;;13.45;40.70
43281;BME280;62175;49.416;8.690;2023-04-20T09:11:02;100295.50;;;13.51;40.50
43281;BME280;62175;49.416;8.690;2023-04-20T09:13:29;100289.72;;;13.28;40.97
43281;BME280;62175;49.416;8.690;2023-04-20T09:15:57;100290.31;;;13.46;42.11
43281;BME280;62175;49.416;8.690;2023-04-20T09:18:23;100291.83;;;12.91;40.77
43281;BME280;62175;49.416;8.690;2023-04-20T09:20:51;100292.11;;;13.10;41.66
43281;BME280;62175;49.416;8.690;2023-04-20T09:23:19;100291.39;;;13.19;41.76
43281;BME280;62175;49.416;8.690;2023-04-20T09:25:51;100284.48;;;13.24;39.85
43281;BME280;62175;49.416;8.690;2023-04-20T09:28:18;100281.98;;;13.29;40.22
43281;BME280;62175;49.416;8.690;2023-04-20T09:30:47;100278.46;;;13.12;41.18
43281;BME280;62175;49.416;8.690;2023-04-20T09:33:14;100269.26;;;13.56;41.98
43281;BME280;62175;49.416;8.690;2023-04-20T09:35:43;100270.46;;;13.27;41.86
43281;BME280;62175;49.416;8.690;2023-04-20T09:38:14;100271.83;;;13.35;41.08
43281;BME280;62175;49.416;8.690;2023-04-20T09:40:42;100272.04;;;13.74;41.59
43281;BME280;62175;49.416;8.690;2023-04-20T09:43:10;100270.19;;;13.11;41.04
43281;BME280;62175;49.416;8.690;2023-04-20T09:45:41;100270.90;;;13.48;41.08
43281;BME280;62175;49.416;8.690;2023-04-20T09:48:09;100268.44;;;13.79;41.19
43281;BME280;62175;49.416;8.690;2023-04-20T09:50:38;100261.39;;;13.53;40.99
43281;BME280;62175;49.416;8.690;2023-04-20T09:53:05;100258.80;;;13.76;41.52
43281;BME280;62175;49.416;8.690;2023-04-20T09:55:32;100263.95;;;13.99;42.47
43281;BME280;62175;49.416;8.690;2023-04-20T09:58:02;100269.03;;;13.58;40.53
43281;BME280;62175;49.416;8.690;2023-04-20T10:00:30;100260.83;;;13.16;40.90
43281;BME280;62175;49.416;8.690;2023-04-20T10:02:57;100266.54;;;13.34;40.73
43281;BME280;62175;49.416;8.690;2023-04-20T10:05:32;100260.76;;;13.69;40.10
43281;BME280;62175;49.416;8.690;2023-04-20T10:08:00;100258.06;;;13.48;40.55
43281;BME280;62175;49.416;8.690;2023-04-20T10:10:27;100256.15;;;13.50;42.15
43281;BME280;62175;49.416;8.690;2023-04-20T10:12:55;100252.97;;;13.30;42.08
43281;BME280;62175;49.416;8.690;2023-04-20T10:15:34;100254.02;;;13.48;41.84
43281;BME280;62175;49.416;8.690;2023-04-20T10:18:02;100251.68;;;13.19;41.20
43281;BME280;62175;49.416;8.690;2023-04-20T10:20:40;100249.81;;;13.55;42.89
43281;BME280;62175;49.416;8.690;2023-04-20T10:23:08;100245.92;;;13.49;41.77
43281;BME280;62175;49.416;8.690;2023-04-20T10:25:36;100239.87;;;13.30;41.13
43281;BME280;62175;49.416;8.690;2023-04-20T10:28:04;100241.67;;;13.37;41.80
43281;BME280;62175;49.416;8.690;2023-04-20T10:30:32;100240.54;;;13.54;41.17
43281;BME280;62175;49.416;8.690;2023-04-20T10:33:03;100228.99;;;13.25;42.21
43281;BME280;62175;49.416;8.690;2023-04-20T10:35:41;100220.84;;;13.72;41.44
43281;BME280;62175;49.416;8.690;2023-04-20T10:38:08;100221.59;;;13.61;42.72
43281;BME280;62175;49.416;8.690;2023-04-20T10:40:35;100206.04;;;13.36;41.19
43281;BME280;62175;49.416;8.690;2023-04-20T10:43:03;100204.53;;;13.64;42.00
43281;BME280;62175;49.416;8.690;2023-04-20T10:45:34;100209.68;;;13.63;42.18
43281;BME280;62175;49.416;8.690;2023-04-20T10:48:07;100211.49;;;13.81;41.70
43281;BME280;62175;49.416;8.690;2023-04-20T10:50:35;100204.02;;;13.99;40.76
43281;BME280;62175;49.416;8.690;2023-04-20T10:53:04;100198.02;;;14.10;41.20
43281;BME280;62175;49.416;8.690;2023-04-20T10:55:31;100208.52;;;13.94;41.62
43281;BME280;62175;49.416;8.690;2023-04-20T10:57:59;100197.55;;;13.52;41.26
43281;BME280;62175;49.416;8.690;2023-04-20T11:00:27;100198.92;;;14.12;40.50
43281;BME280;62175;49.416;8.690;2023-04-20T11:02:56;100192.99;;;14.21;40.55
43281;BME280;62175;49.416;8.690;2023-04-20T11:05:28;100190.82;;;14.01;39.79
43281;BME280;62175;49.416;8.690;2023-04-20T11:07:57;100190.19;;;14.44;39.27
43281;BME280;62175;49.416;8.690;2023-04-20T11:10:38;100187.64;;;14.48;40.27
43281;BME280;62175;49.416;8.690;2023-04-20T11:13:05;100182.96;;;14.58;40.15
43281;BME280;62175;49.416;8.690;2023-04-20T11:15:34;100184.90;;;14.55;39.51
43281;BME280;62175;49.416;8.690;2023-04-20T11:18:09;100185.80;;;14.40;39.61
43281;BME280;62175;49.416;8.690;2023-04-20T11:20:37;100184.12;;;14.19;40.90
43281;BME280;62175;49.416;8.690;2023-04-20T11:23:15;100177.95;;;14.57;40.99
43281;BME280;62175;49.416;8.690;2023-04-20T11:25:48;100174.26;;;14.38;40.75
43281;BME280;62175;49.416;8.690;2023-04-20T11:28:16;100169.98;;;14.41;40.01
43281;BME280;62175;49.416;8.690;2023-04-20T11:30:43;100170.26;;;14.27;41.89
43281;BME280;62175;49.416;8.690;2023-04-20T11:33:11;100167.08;;;14.26;40.23
43281;BME280;62175;49.416;8.690;2023-04-20T11:35:39;100160.02;;;14.44;40.45
43281;BME280;62175;49.416;8.690;2023-04-20T11:38:07;100157.78;;;14.15;40.66
43281;BME280;62175;49.416;8.690;2023-04-20T11:40:35;100151.47;;;14.23;40.75
43281;BME280;62175;49.416;8.690;2023-04-20T11:43:03;100151.46;;;14.42;39.72
43281;BME280;62175;49.416;8.690;2023-04-20T11:45:31;100149.09;;;14.63;39.50
43281;BME280;62175;49.416;8.690;2023-04-20T11:47:59;100148.14;;;14.41;38.24
43281;BME280;62175;49.416;8.690;2023-04-20T11:50:26;100148.63;;;14.44;39.34
43281;BME280;62175;49.416;8.690;2023-04-20T11:52:54;100150.90;;;14.69;39.33
43281;BME280;62175;49.416;8.690;2023-04-20T11:55:21;100157.82;;;14.49;39.11
43281;BME280;62175;49.416;8.690;2023-04-20T11:57:48;100161.80;;;14.11;38.82
43281;BME280;62175;49.416;8.690;2023-04-20T12:00:16;100172.74;;;14.56;39.77
43281;BME280;62175;49.416;8.690;2023-04-20T12:02:44;100185.95;;;14.51;42.61
43281;BME280;62175;49.416;8.690;2023-04-20T12:05:12;100194.25;;;14.21;42.51
43281;BME280;62175;49.416;8.690;2023-04-20T12:07:39;100201.22;;;13.88;43.87
43281;BME280;62175;49.416;8.690;2023-04-20T12:10:07;100197.11;;;14.45;44.71
43281;BME280;62175;49.416;8.690;2023-04-20T12:12:36;100189.73;;;14.27;44.43
43281;BME280;62175;49.416;8.690;2023-04-20T12:15:04;100186.30;;;14.34;45.98
43281;BME280;62175;49.416;8.690;2023-04-20T12:17:32;100189.86;;;14.28;46.14
43281;BME280;62175;49.416;8.690;2023-04-20T12:19:59;100180.25;;;14.01;44.97
43281;BME280;62175;49.416;8.690;2023-04-20T12:22:27;100177.92;;;14.06;44.91
43281;BME280;62175;49.416;8.690;2023-04-20T12:24:54;100171.99;;;14.14;45.69
43281;BME280;62175;49.416;8.690;2023-04-20T12:27:21;100172.30;;;14.02;45.05
43281;BME280;62175;49.416;8.690;2023-04-20T12:29:48;100172.65;;;13.97;43.24
43281;BME280;62175;49.416;8.690;2023-04-20T12:32:15;100169.16;;;14.18;42.99
43281;BME280;62175;49.416;8.690;2023-04-20T12:34:43;100173.24;;;14.24;44.26
43281;BME280;62175;49.416;8.690;2023-04-20T12:37:10;100177.83;;;14.16;43.02
43281;BME280;62175;49.416;8.690;2023-04-20T12:39:37;100177.95;;;14.08;44.34
43281;BME280;62175;49.416;8.690;2023-04-20T12:42:04;100175.20;;;13.94;42.18
43281;BME280;62175;49.416;8.690;2023-04-20T12:44:32;100174.37;;;14.18;41.93
43281;BME280;62175;49.416;8.690;2023-04-20T12:46:58;100174.51;;;14.11;42.66
43281;BME280;62175;49.416;8.690;2023-04-20T12:49:26;100169.88;;;14.15;42.12
43281;BME280;62175;49.416;8.690;2023-04-20T12:51:53;100172.49;;;14.03;43.08
43281;BME280;62175;49.416;8.690;2023-04-20T12:54:21;100170.34;;;14.31;42.99
43281;BME280;62175;49.416;8.690;2023-04-20T12:56:48;100167.23;;;14.09;44.24